Time;durP1;ratioP1;P1;durP2;ratioP2;P2;SDS_P1;SDS_P2;PMS_P1;PMS_P2;Temp;Humidity;BMP_temperature;BMP_pressure;BME280_temperature;BME280_humidity;BME280_pressure;Samples;Min_cycle;Max_cycle;Signal;HPM_P1;HPM_P2
2023/06/23 00:01:36;;;;;;;41.87;34.23;;;17.50;99.90;;;;;;5056340;28;20174;-89
2023/06/23 00:04:01;;;;;;;41.57;34.60;;;17.60;99.90;;;;;;5055800;28;20626;-87
2023/06/23 00:06:28;;;;;;;47.87;34.73;;;17.60;99.90;;;;;;5057653;28;20175;-80
2023/06/23 00:08:55;;;;;;;43.20;34.07;;;17.60;99.90;;;;;;5037691;28;20195;-83
2023/06/23 00:11:22;;;;;;;42.50;33.97;;;17.60;99.90;;;;;;5036689;28;20184;-80
2023/06/23 00:13:49;;;;;;;44.60;33.33;;;17.50;99.90;;;;;;5075970;28;20185;-84
2023/06/23 00:16:15;;;;;;;37.40;31.77;;;17.50;99.90;;;;;;5077025;28;20243;-88
2023/06/23 00:18:41;;;;;;;36.03;31.43;;;17.50;99.90;;;;;;5067475;28;20165;-82
2023/06/23 00:21:08;;;;;;;39.80;31.60;;;17.50;99.90;;;;;;5066228;28;20199;-82
2023/06/23 00:24:02;;;;;;;38.40;31.47;;;17.60;99.90;;;;;;5055062;28;20153;-87
2023/06/23 00:27:10;;;;;;;42.30;31.23;;;17.60;99.90;;;;;;5058124;28;20162;-80
2023/06/23 00:29:36;;;;;;;38.40;30.70;;;17.60;99.90;;;;;;5055108;28;20676;-85
2023/06/23 00:32:02;;;;;;;35.60;30.07;;;17.60;99.90;;;;;;5054107;28;20163;-82
2023/06/23 00:34:28;;;;;;;36.30;29.07;;;17.60;99.90;;;;;;5054563;28;20169;-85
2023/06/23 00:36:54;;;;;;;36.33;28.27;;;17.60;99.90;;;;;;5059257;28;20223;-78
2023/06/23 00:39:20;;;;;;;33.33;29.80;;;17.50;99.90;;;;;;5045874;28;20179;-88
2023/06/23 00:41:46;;;;;;;38.10;28.53;;;17.60;99.90;;;;;;5045168;28;20175;-79
2023/06/23 00:44:11;;;;;;;32.20;28.67;;;17.60;99.90;;;;;;5054494;28;20190;-89
2023/06/23 00:46:39;;;;;;;38.23;27.27;;;17.80;99.90;;;;;;5054413;28;20644;-84
2023/06/23 00:49:04;;;;;;;33.90;28.07;;;17.70;99.90;;;;;;5036405;28;20178;-86
2023/06/23 00:51:31;;;;;;;35.77;28.20;;;17.80;99.90;;;;;;5036840;28;20177;-90
2023/06/23 00:53:58;;;;;;;39.70;28.93;;;17.90;99.90;;;;;;5054609;28;20162;-84
2023/06/23 00:56:24;;;;;;;33.37;28.13;;;17.90;99.90;;;;;;5054478;28;20650;-85
2023/06/23 00:58:50;;;;;;;33.77;27.60;;;17.80;99.90;;;;;;5036361;28;20170;-86
2023/06/23 01:01:16;;;;;;;34.97;27.67;;;17.90;99.90;;;;;;5036233;28;20183;-81
2023/06/23 01:03:43;;;;;;;32.13;28.77;;;18.00;99.90;;;;;;5054199;28;20186;-78
2023/06/23 01:06:27;;;;;;;32.90;27.97;;;18.00;99.90;;;;;;5053683;28;20161;-86
2023/06/23 01:09:01;;;;;;;36.37;28.50;;;17.90;99.90;;;;;;5054253;28;20168;-88
2023/06/23 01:11:42;;;;;;;33.13;29.37;;;17.80;99.90;;;;;;5054752;28;20165;-86
2023/06/23 01:14:31;;;;;;;35.63;28.67;;;17.70;99.90;;;;;;5054878;28;20161;-89
2023/06/23 01:17:15;;;;;;;33.50;28.50;;;17.70;99.90;;;;;;5020372;28;20220;-89
2023/06/23 01:20:25;;;;;;;35.00;28.80;;;17.80;99.90;;;;;;5056291;28;20168;-86
2023/06/23 01:23:17;;;;;;;31.17;27.47;;;17.80;99.90;;;;;;4977844;28;20658;-89
2023/06/23 01:26:09;;;;;;;30.37;26.17;;;17.80;99.90;;;;;;5055997;28;20200;-82
2023/06/23 01:28:52;;;;;;;32.47;27.37;;;17.90;99.90;;;;;;5040233;28;20528;-88
2023/06/23 01:32:13;;;;;;;35.20;30.37;;;17.90;99.90;;;;;;5057790;28;20188;-79
2023/06/23 01:34:43;;;;;;;38.43;30.70;;;18.00;99.90;;;;;;4996558;28;20189;-78
2023/06/23 01:37:13;;;;;;;31.67;28.30;;;17.90;99.90;;;;;;5069102;28;20220;-78
2023/06/23 01:39:52;;;;;;;32.17;28.73;;;17.90;99.90;;;;;;5068000;28;20194;-79
2023/06/23 01:42:28;;;;;;;34.17;28.37;;;17.90;99.90;;;;;;5061605;28;20157;-84
2023/06/23 01:45:00;;;;;;;36.90;28.73;;;17.90;99.90;;;;;;5040480;28;20275;-85
2023/06/23 01:47:30;;;;;;;36.73;29.23;;;17.80;99.90;;;;;;5057733;28;20153;-85
2023/06/23 01:50:00;;;;;;;35.33;28.77;;;17.90;99.90;;;;;;5057150;28;20223;-88
2023/06/23 01:52:28;;;;;;;32.97;28.40;;;18.00;99.90;;;;;;5056723;28;20167;-79
2023/06/23 01:54:56;;;;;;;35.63;28.90;;;17.90;99.90;;;;;;5056410;28;20463;-79
2023/06/23 01:57:24;;;;;;;35.50;29.03;;;18.00;99.90;;;;;;5056341;28;20218;-79
2023/06/23 01:59:50;;;;;;;36.40;29.93;;;17.80;99.90;;;;;;5056435;28;20210;-86
2023/06/23 02:02:18;;;;;;;38.80;30.53;;;17.90;99.90;;;;;;5056128;28;20625;-80
2023/06/23 02:04:47;;;;;;;32.33;28.40;;;18.00;99.90;;;;;;5056733;28;20253;-84
2023/06/23 02:07:18;;;;;;;32.57;29.00;;;18.00;99.90;;;;;;5060140;28;20215;-78
2023/06/23 02:09:45;;;;;;;34.03;28.90;;;18.00;99.90;;;;;;5060187;28;20173;-80
2023/06/23 02:12:12;;;;;;;34.80;28.93;;;17.90;99.90;;;;;;5056970;28;20199;-79
2023/06/23 02:14:39;;;;;;;32.77;29.27;;;17.90;99.90;;;;;;5056470;28;20219;-79
2023/06/23 02:17:10;;;;;;;34.37;29.90;;;17.90;99.90;;;;;;5057054;28;20696;-82
2023/06/23 02:19:39;;;;;;;37.30;30.47;;;17.90;99.90;;;;;;5039518;28;20611;-87
2023/06/23 02:22:11;;;;;;;39.63;30.80;;;18.00;99.90;;;;;;5056893;28;20177;-86
2023/06/23 02:24:38;;;;;;;35.97;31.07;;;18.00;99.90;;;;;;5056975;28;20191;-81
2023/06/23 02:27:06;;;;;;;37.47;30.87;;;18.00;99.90;;;;;;5056095;28;20684;-87
2023/06/23 02:29:35;;;;;;;37.83;30.20;;;17.90;99.90;;;;;;5056985;28;20625;-80
2023/06/23 02:32:02;;;;;;;35.10;30.13;;;17.80;99.90;;;;;;5038791;28;20188;-81
2023/06/23 02:34:29;;;;;;;33.87;29.77;;;17.80;99.90;;;;;;5056861;28;20175;-84
2023/06/23 02:36:59;;;;;;;34.40;29.53;;;17.70;99.90;;;;;;5056194;28;20211;-81
2023/06/23 02:39:29;;;;;;;33.57;28.77;;;17.70;99.90;;;;;;5057216;28;20181;-79
2023/06/23 02:41:58;;;;;;;33.90;28.27;;;17.70;99.90;;;;;;5056014;28;20179;-78
2023/06/23 02:44:38;;;;;;;35.47;29.93;;;17.90;99.90;;;;;;5055813;28;20254;-79
2023/06/23 02:47:13;;;;;;;33.33;29.03;;;17.90;99.90;;;;;;5056928;28;20696;-77
2023/06/23 02:49:40;;;;;;;32.73;28.27;;;17.90;99.90;;;;;;5057307;28;20263;-86
2023/06/23 02:52:08;;;;;;;32.60;27.80;;;17.80;99.90;;;;;;5056593;28;20173;-82
2023/06/23 02:54:39;;;;;;;33.47;29.87;;;17.80;99.90;;;;;;5038161;28;20181;-80
2023/06/23 02:57:11;;;;;;;35.80;29.53;;;18.00;99.90;;;;;;5057835;28;20252;-87
2023/06/23 02:59:41;;;;;;;34.67;29.50;;;17.90;99.90;;;;;;5055902;28;20242;-81
2023/06/23 03:02:09;;;;;;;39.27;31.43;;;17.80;99.90;;;;;;5056878;28;20164;-79
2023/06/23 03:04:38;;;;;;;39.17;30.53;;;17.60;99.90;;;;;;5058231;28;20153;-87
2023/06/23 03:07:05;;;;;;;38.17;30.03;;;17.80;99.90;;;;;;5056880;28;20158;-85
2023/06/23 03:09:31;;;;;;;36.40;31.30;;;17.60;99.90;;;;;;5056583;28;20201;-79
2023/06/23 03:11:57;;;;;;;40.83;30.97;;;17.50;99.90;;;;;;5062336;28;20169;-85
2023/06/23 03:14:24;;;;;;;35.03;29.93;;;17.40;99.90;;;;;;5079400;28;20186;-83
2023/06/23 03:17:04;;;;;;;37.10;30.97;;;17.30;99.90;;;;;;5073031;28;20195;-81
2023/06/23 03:19:56;;;;;;;37.97;31.10;;;17.40;99.90;;;;;;5071406;28;20515;-78
2023/06/23 03:25:51;;;;;;;40.13;32.17;;;17.40;99.90;;;;;;5055976;28;20280;-85
2023/06/23 03:28:25;;;;;;;38.13;31.30;;;17.40;99.90;;;;;;5055582;28;20203;-85
2023/06/23 03:30:58;;;;;;;40.80;32.53;;;17.40;99.90;;;;;;5056087;28;20164;-78
2023/06/23 03:33:32;;;;;;;36.20;30.93;;;17.40;99.90;;;;;;5056667;28;20165;-85
2023/06/23 03:36:07;;;;;;;40.63;33.60;;;17.30;99.90;;;;;;5068145;28;20196;-85
2023/06/23 03:38:37;;;;;;;37.77;32.57;;;17.40;99.90;;;;;;5075646;28;20237;-82
2023/06/23 03:41:09;;;;;;;38.10;32.40;;;17.30;99.90;;;;;;5069540;28;20380;-85
2023/06/23 03:43:41;;;;;;;43.93;34.03;;;17.20;99.90;;;;;;5067610;28;20188;-78
2023/06/23 03:46:31;;;;;;;39.47;34.07;;;17.20;99.90;;;;;;5041213;28;20169;-90
2023/06/23 03:49:01;;;;;;;41.57;33.77;;;17.30;99.90;;;;;;5055965;28;20660;-86
2023/06/23 03:51:29;;;;;;;43.43;35.47;;;17.40;99.90;;;;;;5056200;28;20157;-88
2023/06/23 03:53:59;;;;;;;42.40;35.93;;;17.30;99.90;;;;;;5055639;28;20159;-83
2023/06/23 03:56:28;;;;;;;42.03;35.37;;;17.30;99.90;;;;;;5037418;28;20247;-81
2023/06/23 03:58:55;;;;;;;39.77;34.27;;;17.20;99.90;;;;;;5055122;28;20171;-80
2023/06/23 04:01:22;;;;;;;43.93;34.77;;;17.10;99.90;;;;;;5055474;28;20183;-88
2023/06/23 04:03:49;;;;;;;42.43;34.90;;;17.00;99.90;;;;;;5056394;28;20269;-80
2023/06/23 04:06:17;;;;;;;45.30;36.20;;;17.00;99.90;;;;;;5055494;28;20168;-81
2023/06/23 04:08:43;;;;;;;42.83;34.47;;;17.00;99.90;;;;;;5037741;28;20196;-87
2023/06/23 04:11:10;;;;;;;40.77;34.33;;;17.10;99.90;;;;;;5037401;28;20175;-87
2023/06/23 04:13:37;;;;;;;40.87;35.80;;;17.10;99.90;;;;;;5036830;28;20181;-83
2023/06/23 04:16:05;;;;;;;39.63;34.57;;;17.10;99.90;;;;;;5054236;28;20242;-83
2023/06/23 04:18:35;;;;;;;43.20;34.10;;;17.10;99.90;;;;;;5036946;28;20174;-88
2023/06/23 04:21:04;;;;;;;42.13;34.87;;;17.10;99.90;;;;;;5036464;28;20177;-85
2023/06/23 04:23:32;;;;;;;40.73;34.70;;;17.10;99.90;;;;;;5054465;28;20165;-80
2023/06/23 04:26:01;;;;;;;40.60;34.40;;;17.20;99.90;;;;;;5054502;28;20233;-80
2023/06/23 04:28:28;;;;;;;41.37;34.50;;;17.10;99.90;;;;;;5054648;28;20621;-85
2023/06/23 04:30:57;;;;;;;40.47;33.03;;;17.10;99.90;;;;;;5055291;28;20199;-81
2023/06/23 04:33:23;;;;;;;40.90;34.37;;;17.10;99.90;;;;;;5054542;28;20651;-83
2023/06/23 04:35:54;;;;;;;39.80;34.30;;;17.10;99.90;;;;;;5055007;28;20204;-85
2023/06/23 04:38:24;;;;;;;41.37;34.20;;;17.10;99.90;;;;;;5054950;28;20223;-84
2023/06/23 04:40:57;;;;;;;38.73;34.20;;;17.20;99.90;;;;;;5054626;28;20171;-81
2023/06/23 04:43:37;;;;;;;42.03;35.23;;;17.30;99.90;;;;;;5055100;28;20764;-86
2023/06/23 04:46:16;;;;;;;40.70;35.23;;;17.40;99.90;;;;;;5058196;28;20528;-79
2023/06/23 04:48:51;;;;;;;42.80;37.20;;;17.50;99.90;;;;;;5058759;28;20178;-78
2023/06/23 04:51:21;;;;;;;45.77;39.47;;;17.60;99.90;;;;;;5056804;28;20165;-81
2023/06/23 04:53:53;;;;;;;47.70;40.10;;;17.50;99.90;;;;;;5037319;28;20636;-88
2023/06/23 04:56:22;;;;;;;47.47;40.97;;;17.50;99.90;;;;;;5058976;28;20250;-86
2023/06/23 04:58:53;;;;;;;49.07;40.43;;;17.50;99.90;;;;;;5040762;28;20176;-80
2023/06/23 05:01:20;;;;;;;47.50;40.10;;;17.60;99.90;;;;;;5058908;28;20646;-89
2023/06/23 05:03:51;;;;;;;46.17;38.53;;;17.50;99.90;;;;;;5058459;28;20169;-79
2023/06/23 05:06:19;;;;;;;44.27;37.63;;;17.40;99.90;;;;;;5057535;28;20529;-79
2023/06/23 05:08:47;;;;;;;44.97;37.53;;;17.50;99.90;;;;;;5060784;28;20165;-81
2023/06/23 05:11:14;;;;;;;41.70;37.13;;;17.60;99.90;;;;;;5059624;28;20165;-79
2023/06/23 05:13:41;;;;;;;42.23;35.73;;;17.70;99.90;;;;;;5057870;28;20173;-83
2023/06/23 05:16:11;;;;;;;40.63;36.23;;;17.90;99.90;;;;;;5058051;28;20260;-84
2023/06/23 05:18:40;;;;;;;43.07;35.70;;;18.00;99.90;;;;;;5079193;28;20225;-79
2023/06/23 05:21:07;;;;;;;40.20;35.17;;;18.10;99.90;;;;;;5062153;28;20245;-83
2023/06/23 05:23:36;;;;;;;40.00;35.63;;;18.30;99.90;;;;;;5078261;28;20158;-81
2023/06/23 05:26:06;;;;;;;37.50;33.40;;;18.30;99.90;;;;;;5069655;28;20226;-82
2023/06/23 05:28:35;;;;;;;38.87;34.10;;;18.50;99.90;;;;;;5068694;28;20224;-80
2023/06/23 05:31:03;;;;;;;41.27;35.60;;;18.60;99.90;;;;;;5064247;28;20319;-79
2023/06/23 05:33:33;;;;;;;42.50;33.83;;;18.80;99.90;;;;;;5057966;28;20190;-83
2023/06/23 05:36:01;;;;;;;38.50;33.97;;;18.90;99.90;;;;;;5057284;28;20206;-83
2023/06/23 05:38:30;;;;;;;41.23;36.87;;;19.00;99.90;;;;;;5039891;28;20261;-81
2023/06/23 05:40:57;;;;;;;40.50;36.20;;;19.10;99.90;;;;;;5057440;28;20159;-87
2023/06/23 05:43:23;;;;;;;40.47;36.10;;;19.20;99.90;;;;;;5057517;28;20180;-90
2023/06/23 05:45:53;;;;;;;39.50;35.30;;;19.20;99.00;;;;;;5056842;28;20182;-81
2023/06/23 05:48:41;;;;;;;40.07;35.97;;;19.30;97.80;;;;;;5059032;28;20176;-81
2023/06/23 05:51:10;;;;;;;42.50;35.87;;;19.30;97.30;;;;;;5056190;28;20159;-80
2023/06/23 05:53:37;;;;;;;39.07;33.50;;;19.40;96.50;;;;;;5055395;28;20201;-77
2023/06/23 05:56:18;;;;;;;38.30;33.83;;;19.40;94.80;;;;;;5055214;28;20576;-80
2023/06/23 05:58:48;;;;;;;38.70;34.33;;;19.30;96.00;;;;;;5054951;28;20172;-78
2023/06/23 06:01:21;;;;;;;36.50;32.50;;;19.30;96.50;;;;;;5054603;28;20237;-77
2023/06/23 06:04:13;;;;;;;34.57;30.70;;;19.50;95.80;;;;;;5055635;28;20189;-77
2023/06/23 06:06:40;;;;;;;33.67;30.03;;;19.70;93.80;;;;;;5053354;28;20207;-77
2023/06/23 06:09:11;;;;;;;34.20;30.50;;;19.70;92.30;;;;;;5055030;28;20704;-79
2023/06/23 06:11:38;;;;;;;39.10;32.47;;;19.60;91.20;;;;;;5054786;28;20166;-78
2023/06/23 06:14:10;;;;;;;33.63;30.17;;;19.40;93.40;;;;;;5054410;28;20309;-78
2023/06/23 06:16:37;;;;;;;37.23;30.97;;;19.40;93.70;;;;;;5037236;28;20578;-78
2023/06/23 06:19:03;;;;;;;33.70;29.53;;;19.30;95.40;;;;;;5056360;28;20181;-78
2023/06/23 06:21:32;;;;;;;36.80;31.17;;;19.30;95.40;;;;;;5056341;28;20209;-79
2023/06/23 06:23:59;;;;;;;32.77;28.07;;;19.20;96.60;;;;;;5055376;28;20169;-77
2023/06/23 06:26:26;;;;;;;31.33;27.03;;;19.30;95.80;;;;;;5055028;28;20256;-81
2023/06/23 06:28:54;;;;;;;32.30;28.77;;;19.40;95.10;;;;;;5055753;28;20170;-81
2023/06/23 06:31:22;;;;;;;31.40;27.97;;;19.40;93.40;;;;;;5055899;28;20198;-80
2023/06/23 06:33:53;;;;;;;32.43;28.97;;;19.40;91.60;;;;;;5059254;28;20157;-79
2023/06/23 06:36:24;;;;;;;34.00;29.00;;;19.50;92.10;;;;;;5071656;28;20199;-77
2023/06/23 06:38:51;;;;;;;31.20;27.90;;;19.40;92.70;;;;;;5058773;28;20165;-78
2023/06/23 06:41:18;;;;;;;30.23;25.80;;;19.60;93.10;;;;;;5062126;28;20311;-79
2023/06/23 06:43:44;;;;;;;27.87;24.93;;;19.80;91.10;;;;;;5056809;28;20175;-85
2023/06/23 06:46:12;;;;;;;28.60;25.20;;;19.80;83.90;;;;;;5054300;28;20189;-87
2023/06/23 06:48:39;;;;;;;26.63;23.83;;;19.70;90.00;;;;;;5058805;28;20249;-81
2023/06/23 06:51:06;;;;;;;28.67;25.60;;;19.60;88.00;;;;;;5055272;28;20178;-84
2023/06/23 06:53:32;;;;;;;28.13;25.13;;;19.70;89.10;;;;;;5037160;28;20179;-81
2023/06/23 06:55:59;;;;;;;31.13;27.93;;;19.80;90.00;;;;;;5057973;28;20214;-79
2023/06/23 06:58:25;;;;;;;28.27;25.33;;;19.80;91.70;;;;;;5071626;28;20178;-79
2023/06/23 07:00:53;;;;;;;26.83;23.77;;;19.90;89.00;;;;;;5049227;28;20190;-78
2023/06/23 07:03:19;;;;;;;28.83;25.73;;;20.10;84.00;;;;;;5065645;28;20169;-79
2023/06/23 07:05:48;;;;;;;27.80;25.00;;;20.20;83.90;;;;;;5059833;28;20309;-81
2023/06/23 07:08:13;;;;;;;27.77;24.77;;;20.30;77.10;;;;;;5056326;28;20225;-87
2023/06/23 07:10:39;;;;;;;27.47;24.70;;;20.40;75.70;;;;;;5055674;28;20180;-82
2023/06/23 07:13:06;;;;;;;25.10;22.40;;;20.40;69.60;;;;;;5056857;28;20167;-83
2023/06/23 07:15:31;;;;;;;27.50;24.60;;;20.30;59.60;;;;;;5055561;28;20217;-79
2023/06/23 07:17:57;;;;;;;26.17;23.40;;;20.20;68.20;;;;;;5054517;28;20178;-79
2023/06/23 07:20:23;;;;;;;23.13;20.47;;;20.10;74.30;;;;;;5055309;28;20210;-83
2023/06/23 07:22:49;;;;;;;23.33;21.03;;;20.30;66.70;;;;;;5056448;28;20202;-87
2023/06/23 07:25:15;;;;;;;18.83;16.83;;;20.40;67.50;;;;;;5056078;28;20178;-87
2023/06/23 07:27:41;;;;;;;20.80;17.70;;;20.40;57.40;;;;;;5054630;28;20183;-79
2023/06/23 07:30:07;;;;;;;19.77;17.67;;;20.50;64.20;;;;;;5055193;28;20176;-81
2023/06/23 07:32:32;;;;;;;20.07;17.90;;;20.60;59.10;;;;;;5054964;28;20631;-83
2023/06/23 07:34:58;;;;;;;17.57;15.20;;;20.60;58.10;;;;;;5037780;28;20199;-87
2023/06/23 07:37:24;;;;;;;17.23;15.43;;;20.60;61.00;;;;;;5055533;28;20219;-83
2023/06/23 07:39:49;;;;;;;16.17;14.33;;;20.70;54.70;;;;;;5055001;28;20531;-86
2023/06/23 07:42:15;;;;;;;17.40;14.20;;;20.80;47.60;;;;;;5055429;28;20234;-80
2023/06/23 07:44:41;;;;;;;18.13;14.50;;;20.90;48.10;;;;;;5054519;28;20523;-86
2023/06/23 07:47:07;;;;;;;13.60;12.23;;;21.00;45.00;;;;;;5054154;28;20175;-86
2023/06/23 07:49:32;;;;;;;15.67;13.93;;;21.00;44.10;;;;;;5036245;28;20505;-84
2023/06/23 07:52:04;;;;;;;16.53;14.83;;;21.00;44.80;;;;;;5054760;28;20167;-85
2023/06/23 07:54:30;;;;;;;16.33;14.70;;;20.90;46.10;;;;;;5054301;28;20168;-79
2023/06/23 07:56:56;;;;;;;19.07;17.00;;;21.10;49.00;;;;;;5053335;28;20212;-80
2023/06/23 07:59:24;;;;;;;15.40;13.80;;;21.20;37.50;;;;;;5053462;28;20266;-78
2023/06/23 08:01:50;;;;;;;16.40;14.63;;;21.00;11.40;;;;;;5053245;28;20200;-79
2023/06/23 08:04:15;;;;;;;16.20;14.53;;;21.20;12.50;;;;;;5052603;28;20208;-78
2023/06/23 08:06:41;;;;;;;16.07;13.80;;;21.20;7.40;;;;;;5053094;28;20180;-80
2023/06/23 08:09:07;;;;;;;16.13;14.43;;;21.50;8.10;;;;;;5053009;28;20162;-85
2023/06/23 08:11:32;;;;;;;16.87;14.00;;;21.70;4.60;;;;;;5035767;28;20178;-80
2023/06/23 08:14:00;;;;;;;14.63;13.17;;;22.00;1.00;;;;;;5053055;28;20157;-80
2023/06/23 08:16:26;;;;;;;16.37;13.47;;;22.00;1.00;;;;;;5034772;28;20723;-80
2023/06/23 08:18:52;;;;;;;13.63;12.30;;;21.90;1.00;;;;;;5053256;28;20158;-79
2023/06/23 08:21:18;;;;;;;13.30;12.00;;;22.10;1.00;;;;;;5053234;28;20610;-79
2023/06/23 08:23:48;;;;;;;12.47;11.17;;;22.20;1.00;;;;;;5052563;28;20169;-80
2023/06/23 08:26:14;;;;;;;13.63;11.77;;;22.20;1.00;;;;;;5053611;28;20181;-78
2023/06/23 08:28:40;;;;;;;13.00;11.20;;;22.20;1.00;;;;;;5054901;28;20239;-88
2023/06/23 08:31:06;;;;;;;10.63;9.63;;;22.40;1.00;;;;;;5053510;28;20207;-79
2023/06/23 08:33:33;;;;;;;12.40;10.30;;;22.50;1.00;;;;;;5053859;28;20171;-81
2023/06/23 08:35:59;;;;;;;10.80;9.07;;;22.50;1.00;;;;;;5054400;28;20201;-81
2023/06/23 08:38:25;;;;;;;10.20;8.77;;;22.50;1.00;;;;;;5054989;28;20169;-81
2023/06/23 08:40:54;;;;;;;10.97;9.43;;;22.50;1.00;;;;;;5054482;28;20709;-80
2023/06/23 08:43:25;;;;;;;11.33;9.43;;;22.30;1.00;;;;;;5055439;28;20234;-80
2023/06/23 08:45:56;;;;;;;11.27;9.93;;;22.20;1.00;;;;;;5053759;28;20188;-79
2023/06/23 08:48:30;;;;;;;9.97;8.93;;;22.30;1.00;;;;;;5055705;28;20166;-86
2023/06/23 08:50:59;;;;;;;9.93;8.53;;;22.40;1.00;;;;;;5054871;28;20170;-84
2023/06/23 08:53:26;;;;;;;10.60;8.77;;;22.50;1.00;;;;;;5037094;28;20273;-87
2023/06/23 08:55:55;;;;;;;10.53;9.43;;;22.70;1.00;;;;;;5055100;28;20230;-87
2023/06/23 08:58:22;;;;;;;10.97;9.60;;;22.90;1.00;;;;;;5054533;28;20166;-86
2023/06/23 09:00:50;;;;;;;10.47;8.57;;;22.90;1.00;;;;;;5075152;28;20174;-78
2023/06/23 09:03:15;;;;;;;12.03;9.40;;;22.90;1.00;;;;;;5056618;28;20183;-81
2023/06/23 09:05:41;;;;;;;10.37;9.00;;;23.00;1.00;;;;;;5075201;28;20222;-87
2023/06/23 09:08:10;;;;;;;11.73;9.50;;;23.10;1.00;;;;;;5036298;28;20609;-86
2023/06/23 09:10:36;;;;;;;11.43;9.57;;;23.20;1.00;;;;;;5054275;28;20168;-83
2023/06/23 09:13:07;;;;;;;10.40;9.07;;;23.30;1.00;;;;;;5054281;28;20174;-87
2023/06/23 09:15:36;;;;;;;11.43;9.13;;;23.30;1.00;;;;;;5055963;28;20198;-87
2023/06/23 09:18:02;;;;;;;10.50;8.70;;;23.20;1.00;;;;;;5022522;28;20185;-85
2023/06/23 09:20:30;;;;;;;9.57;8.50;;;23.10;1.00;;;;;;5035361;28;20176;-85
2023/06/23 09:22:57;;;;;;;13.70;8.03;;;23.00;1.00;;;;;;5054349;28;20198;-87
2023/06/23 09:25:47;;;;;;;10.33;8.17;;;23.10;1.00;;;;;;5055121;28;20175;-87
2023/06/23 09:28:28;;;;;;;7.03;5.27;;;23.40;1.00;;;;;;5054492;28;20651;-88
2023/06/23 09:31:05;;;;;;;7.13;6.33;;;23.50;1.00;;;;;;5038094;28;20179;-84
2023/06/23 09:33:31;;;;;;;7.50;6.50;;;23.40;1.00;;;;;;5064708;28;20168;-80
2023/06/23 09:36:02;;;;;;;7.73;6.40;;;23.40;1.00;;;;;;5074322;28;20224;-84
2023/06/23 09:38:29;;;;;;;8.47;6.23;;;23.60;1.00;;;;;;5073565;28;20152;-80
2023/06/23 09:41:16;;;;;;;7.63;6.07;;;23.80;1.00;;;;;;5072913;28;20161;-79
2023/06/23 09:43:44;;;;;;;6.60;5.37;;;23.70;1.00;;;;;;5077185;28;20574;-83
2023/06/23 09:46:11;;;;;;;7.70;5.90;;;23.70;1.00;;;;;;5077435;28;20197;-86
2023/06/23 09:48:37;;;;;;;9.43;7.43;;;23.80;1.00;;;;;;5065754;28;20179;-85
2023/06/23 09:51:04;;;;;;;8.73;6.40;;;24.10;1.00;;;;;;5067249;28;20189;-84
2023/06/23 09:53:32;;;;;;;7.43;5.53;;;24.20;1.00;;;;;;5045994;28;20179;-87
2023/06/23 09:55:59;;;;;;;5.47;4.77;;;24.20;1.00;;;;;;5076633;28;20204;-87
2023/06/23 09:58:46;;;;;;;7.23;4.73;;;24.20;1.00;;;;;;5078510;28;20172;-85
2023/06/23 10:01:18;;;;;;;6.10;4.73;;;24.30;1.00;;;;;;5068904;28;20224;-83
2023/06/23 10:03:54;;;;;;;6.93;5.07;;;24.30;1.00;;;;;;5064899;28;20165;-87
2023/06/23 10:06:39;;;;;;;6.83;5.53;;;24.40;1.00;;;;;;5061455;28;20236;-88
2023/06/23 10:09:10;;;;;;;6.53;5.83;;;24.60;1.00;;;;;;5061025;28;20160;-86
2023/06/23 10:11:53;;;;;;;6.57;5.17;;;24.80;1.00;;;;;;5058806;28;20165;-86
2023/06/23 10:14:42;;;;;;;7.53;5.10;;;24.70;1.00;;;;;;5068331;28;20145;-80
2023/06/23 10:17:09;;;;;;;5.30;4.70;;;24.70;1.00;;;;;;5080185;28;20192;-80
2023/06/23 10:19:35;;;;;;;5.00;4.37;;;24.70;1.00;;;;;;5076696;28;20177;-87
2023/06/23 10:22:02;;;;;;;7.57;5.30;;;24.80;1.00;;;;;;5078357;28;20176;-82
2023/06/23 10:24:31;;;;;;;6.00;4.40;;;24.80;1.00;;;;;;5077648;28;20157;-82
2023/06/23 10:27:03;;;;;;;6.50;4.67;;;24.80;1.00;;;;;;5078663;28;20145;-82
2023/06/23 10:29:34;;;;;;;6.67;5.30;;;24.70;1.00;;;;;;5063398;28;20176;-88
2023/06/23 10:32:02;;;;;;;5.30;4.77;;;24.50;1.00;;;;;;5058673;28;20256;-84
2023/06/23 10:34:28;;;;;;;6.57;4.77;;;24.60;1.00;;;;;;5058826;28;20168;-88
2023/06/23 10:37:00;;;;;;;6.10;4.80;;;24.70;1.00;;;;;;5057333;28;20250;-88
2023/06/23 10:39:30;;;;;;;6.20;5.60;;;24.90;1.00;;;;;;5058860;28;20171;-88
2023/06/23 10:41:58;;;;;;;6.63;4.47;;;24.80;1.00;;;;;;5023300;28;20180;-86
2023/06/23 10:44:24;;;;;;;4.80;3.90;;;24.70;1.00;;;;;;5058742;28;20172;-87
2023/06/23 10:46:50;;;;;;;5.80;4.40;;;24.70;1.00;;;;;;5061673;28;20190;-87
2023/06/23 10:49:19;;;;;;;5.67;4.07;;;24.90;1.00;;;;;;5060930;28;20176;-87
2023/06/23 10:51:47;;;;;;;6.23;4.03;;;25.00;99.90;;;;;;5041263;28;20169;-88
2023/06/23 10:54:26;;;;;;;5.63;4.33;;;25.00;99.90;;;;;;5060319;28;20222;-87
2023/06/23 10:56:53;;;;;;;5.60;4.80;;;24.90;99.90;;;;;;5060642;28;20208;-88
2023/06/23 10:59:29;;;;;;;6.97;4.40;;;24.90;99.90;;;;;;5059195;28;20164;-88
2023/06/23 11:02:02;;;;;;;7.10;4.40;;;24.90;1.00;;;;;;5040823;28;20168;-88
2023/06/23 11:04:30;;;;;;;5.03;4.20;;;25.00;1.00;;;;;;5060133;28;20150;-87
2023/06/23 11:07:10;;;;;;;4.93;3.23;;;25.30;99.90;;;;;;5077390;28;20165;-83
2023/06/23 11:09:54;;;;;;;4.97;3.30;;;25.30;1.00;;;;;;5078784;28;20153;-87
2023/06/23 11:12:30;;;;;;;5.63;3.50;;;25.30;99.90;;;;;;5078425;28;20153;-88
2023/06/23 11:15:20;;;;;;;6.33;4.27;;;25.40;1.00;;;;;;5076740;28;20299;-88
2023/06/23 11:18:06;;;;;;;5.53;4.00;;;25.50;1.00;;;;;;5073305;28;20234;-88
2023/06/23 11:20:35;;;;;;;4.57;3.70;;;25.20;99.90;;;;;;5077446;28;20169;-84
2023/06/23 11:23:07;;;;;;;6.50;3.87;;;25.20;99.90;;;;;;5077741;28;20161;-88
2023/06/23 11:25:51;;;;;;;6.03;4.00;;;25.40;99.90;;;;;;5076824;28;20173;-86
2023/06/23 11:28:33;;;;;;;7.53;5.20;;;25.80;99.90;;;;;;5076659;28;20295;-88
2023/06/23 11:31:20;;;;;;;6.03;4.70;;;25.70;99.90;;;;;;5064926;28;20179;-87
2023/06/23 11:34:08;;;;;;;6.67;4.60;;;25.60;99.90;;;;;;5061926;28;20196;-88
2023/06/23 11:36:34;;;;;;;6.33;4.33;;;25.50;99.90;;;;;;5059425;28;20212;-85
2023/06/23 11:39:03;;;;;;;6.30;4.90;;;25.50;99.90;;;;;;5059310;28;20169;-86
2023/06/23 11:41:31;;;;;;;6.20;5.10;;;25.50;99.90;;;;;;5052950;28;20196;-86
2023/06/23 11:43:58;;;;;;;6.50;3.73;;;25.60;99.90;;;;;;5037287;28;20226;-86
2023/06/23 11:46:24;;;;;;;5.60;3.37;;;25.80;1.00;;;;;;5038748;28;20532;-87
2023/06/23 11:48:53;;;;;;;4.30;3.40;;;26.00;1.00;;;;;;5037140;28;20171;-86
2023/06/23 11:51:21;;;;;;;6.77;4.37;;;26.20;1.00;;;;;;5037796;28;20502;-86
2023/06/23 11:53:53;;;;;;;5.07;3.67;;;26.10;1.00;;;;;;5036663;28;20165;-86
2023/06/23 11:56:20;;;;;;;5.57;3.93;;;26.10;1.00;;;;;;5036316;28;20203;-87
2023/06/23 11:58:57;;;;;;;8.53;3.97;;;26.20;1.00;;;;;;5037395;28;20166;-85
2023/06/23 12:01:25;;;;;;;6.77;3.83;;;26.00;1.00;;;;;;5035612;28;20716;-85
2023/06/23 12:03:52;;;;;;;4.10;3.13;;;25.90;1.00;;;;;;5037261;28;20165;-88
2023/06/23 12:06:24;;;;;;;5.27;3.00;;;25.90;1.00;;;;;;5039185;28;20181;-87
2023/06/23 12:08:50;;;;;;;4.07;2.90;;;26.10;1.00;;;;;;5040406;28;20174;-84
2023/06/23 12:11:22;;;;;;;4.20;3.40;;;26.10;99.90;;;;;;5006065;28;20264;-86
2023/06/23 12:13:51;;;;;;;5.60;2.90;;;26.00;24.80;;;;;;5039802;28;20165;-88
2023/06/23 12:16:18;;;;;;;4.83;3.23;;;25.90;57.00;;;;;;5040928;28;20219;-87
2023/06/23 12:18:51;;;;;;;4.33;2.97;;;26.20;1.00;;;;;;5042160;28;20193;-86
2023/06/23 12:21:18;;;;;;;5.70;3.63;;;26.40;1.00;;;;;;5023122;28;20174;-86
2023/06/23 12:23:45;;;;;;;5.80;3.40;;;26.60;1.00;;;;;;5023831;28;20300;-86
2023/06/23 12:26:11;;;;;;;4.80;3.00;;;26.80;1.00;;;;;;5042252;28;20172;-87
2023/06/23 12:28:39;;;;;;;4.60;2.93;;;26.90;99.90;;;;;;5041259;28;20189;-85
2023/06/23 12:31:07;;;;;;;4.70;3.30;;;27.00;99.90;;;;;;5043398;28;20174;-84
2023/06/23 12:33:38;;;;;;;4.37;3.00;;;27.10;99.90;;;;;;5028280;28;20173;-88
2023/06/23 12:36:05;;;;;;;4.93;3.40;;;27.20;99.90;;;;;;5028991;28;20212;-84
2023/06/23 12:38:33;;;;;;;5.63;2.97;;;27.20;99.90;;;;;;5028538;28;20179;-87
2023/06/23 12:41:24;;;;;;;4.83;3.27;;;27.10;99.90;;;;;;5024169;28;20185;-86
2023/06/23 12:43:57;;;;;;;7.67;3.00;;;26.80;99.90;;;;;;5041083;28;20176;-86
2023/06/23 12:46:28;;;;;;;3.73;2.90;;;26.70;1.00;;;;;;5049678;28;20269;-78
2023/06/23 12:48:54;;;;;;;3.93;3.10;;;26.50;1.00;;;;;;5055677;28;20192;-80
2023/06/23 12:51:33;;;;;;;4.70;3.50;;;26.70;1.00;;;;;;5038018;28;20175;-80
2023/06/23 12:54:03;;;;;;;5.57;3.43;;;26.60;1.00;;;;;;5055606;28;20175;-85
2023/06/23 12:56:29;;;;;;;3.90;3.20;;;26.70;1.00;;;;;;5066075;28;20207;-86